Tuesday, May 21, 2019, 2:44 PM EDT
Back to Local

KBJJ, Wooster Wayne County Airport

Location: Smithville, OH, United States Lat: 40.867
Local Time: 2:44 PM EDT (18:44 GMT) Lon: -81.883
Time Zone: US/Eastern Elev: 1138 ft

Show me the last for .
Show Decoded

2019-05-21 13:56 METAR KBJJ 211756Z AUTO 05008KT 10SM SCT090 OVC110 13/04 A3018 RMK AO2 SLP222
                 60000 T01280044 10133 20083 55006 =
2019-05-21 12:56 METAR KBJJ 211656Z AUTO 09008KT 10SM SCT110 12/04 A3018 RMK AO2 RAB11E34 SLP221
                 P0000 T01170039 =
2019-05-21 11:56 METAR KBJJ 211556Z AUTO 06009KT 10SM FEW090 SCT110 12/03 A3017 RMK AO2 SLP218
                 T01170033 =
2019-05-21 10:56 METAR KBJJ 211456Z AUTO 06008KT 10SM SCT110 10/03 A3020 RMK AO2 SLP229 T01000033
                 50006 =
2019-05-21 09:56 METAR KBJJ 211356Z AUTO 02003KT 10SM CLR 09/04 A3022 RMK AO2 SLP237 T00940039 =
2019-05-21 08:56 METAR KBJJ 211256Z AUTO 00000KT 10SM CLR 08/04 A3020 RMK AO2 SLP229 T00830039 =
2019-05-21 07:56 METAR KBJJ 211156Z AUTO 05006KT 10SM CLR 08/04 A3018 RMK AO2 PRESRR SLP222
                 T00830044 10089 20044 53015 =
2019-05-21 06:56 METAR KBJJ 211056Z AUTO 35004KT 10SM CLR 06/05 A3016 RMK AO2 SLP217 T00610050 =
2019-05-21 05:56 METAR KBJJ 210956Z AUTO 00000KT 10SM CLR 06/04 A3014 RMK AO2 SLP210 T00560039 =
2019-05-21 04:56 METAR KBJJ 210856Z AUTO 02003KT 10SM CLR 06/04 A3013 RMK AO2 SLP207 T00610044
                 53007 =
2019-05-21 03:56 METAR KBJJ 210756Z AUTO 04006KT 10SM FEW035 07/04 A3011 RMK AO2 SLP198 T00720039
                 =
2019-05-21 02:56 METAR KBJJ 210656Z AUTO 04007KT 10SM OVC035 08/05 A3011 RMK AO2 SLP197 T00830050
                 =
2019-05-21 02:17 METAR KBJJ 210617Z AUTO 04007KT 10SM FEW016 SCT025 OVC034 08/06 A3011 RMK AO2
                 T00830061 =
2019-05-21 01:56 METAR KBJJ 210556Z AUTO 04013KT 10SM BKN016 BKN025 OVC034 09/07 A3011 RMK AO2
                 SLP197 T00890067 10133 20089 51009 =
2019-05-21 01:36 METAR KBJJ 210536Z AUTO 03008KT 10SM BKN016 BKN023 OVC031 09/07 A3011 RMK AO2
                 T00940067 =
2019-05-21 01:29 METAR KBJJ 210529Z AUTO 02007KT 10SM SCT018 SCT022 OVC031 09/07 A3011 RMK AO2
                 T00940067 =
2019-05-21 01:11 METAR KBJJ 210511Z AUTO 03008G16KT 10SM BKN022 BKN029 OVC036 09/07 A3010 RMK AO2
                 T00940067 =
2019-05-21 00:56 METAR KBJJ 210456Z AUTO 36008KT 10SM SCT027 OVC038 10/06 A3010 RMK AO2 SLP193
                 T01000056 401940100 =
2019-05-20 23:56 METAR KBJJ 210356Z AUTO 36005KT 10SM OVC033 10/06 A3010 RMK AO2 SLP191 T01000061
                 =
2019-05-20 22:56 METAR KBJJ 210256Z AUTO 36008KT 10SM OVC033 11/06 A3008 RMK AO2 SLP186 T01060061
                 51012 =
2019-05-20 21:56 METAR KBJJ 210156Z AUTO 35012G18KT 10SM FEW030 OVC036 12/06 A3008 RMK AO2 SLP184
                 T01170056 =
2019-05-20 20:56 METAR KBJJ 210056Z AUTO 31011G18KT 10SM OVC038 12/07 A3007 RMK AO2 SLP182
                 T01220072 =
2019-05-20 19:56 METAR KBJJ 202356Z AUTO 30010KT 10SM FEW025 FEW029 OVC038 13/08 A3005 RMK AO2
                 SLP173 T01330083 10183 20133 51018 =
2019-05-20 18:56 METAR KBJJ 202256Z AUTO 30013KT 10SM FEW025 OVC036 13/09 A3003 RMK AO2 SLP169
                 T01330089 =
2019-05-20 17:56 METAR KBJJ 202156Z AUTO 29019G26KT 10SM SCT026 BKN038 OVC046 14/10 A3003 RMK AO2
                 PK WND 30026/2147 SLP167 T01390100 =
2019-05-20 16:56 METAR KBJJ 202056Z AUTO 30015KT 10SM BKN036 OVC042 15/09 A2999 RMK AO2 SLP155
                 T01500094 53011 =
2019-05-20 15:56 METAR KBJJ 201956Z AUTO 29014KT 10SM BKN036 OVC045 16/09 A2998 RMK AO2 SLP149
                 T01610094 =
2019-05-20 14:56 METAR KBJJ 201856Z AUTO 28016KT 10SM BKN038 OVC046 17/10 A2997 RMK AO2 SLP145
                 T01670100 =

Support USWX by starting your Amazon purchase here.